Terminal Aerodrome Forecast
Issued by NWS Wilmington, OH

Current Version | Previous Version | Graphics & Text | Print | Product List | Glossary On
Versions: 1 2 3 4 5 6 7 8 9 10 11 12 13 14 15 16 17 18 19
944
FTUS41 KILN 180537
TAFILN
TAF
KILN 180537Z 1806/1906 22007KT P6SM BKN007
      TEMPO 1808/1812 4SM BR SCT007 SCT040
     FM181200 24006KT 6SM BR SCT050
     FM181500 26011KT P6SM SCT030
     FM181700 27013G20KT P6SM SCT040
     FM190000 27008KT P6SM SKC=

USA.gov is the U.S. government's official web portal to all federal, state and local government web resources and services.